createdAt,value
2023-05-10T00:00:13.695Z,1000.97
2023-05-10T00:01:13.581Z,1001.02
2023-05-10T00:02:13.656Z,1000.97
2023-05-10T00:03:13.631Z,1000.98
2023-05-10T00:04:13.664Z,1000.97
2023-05-10T00:05:13.513Z,1001.00
2023-05-10T00:06:13.512Z,1000.98
2023-05-10T00:07:13.494Z,1001.01
2023-05-10T00:08:13.523Z,1001.00
2023-05-10T00:09:13.469Z,1000.98
2023-05-10T00:10:13.695Z,1001.03
2023-05-10T00:11:13.445Z,1001.02
2023-05-10T00:12:13.442Z,1000.95
2023-05-10T00:13:13.484Z,1000.97
2023-05-10T00:14:13.421Z,1000.99
2023-05-10T00:15:13.448Z,1000.99
2023-05-10T00:16:13.409Z,1000.96
2023-05-10T00:17:13.379Z,1000.96
2023-05-10T00:18:13.370Z,1000.99
2023-05-10T00:19:13.780Z,1000.97
2023-05-10T00:20:13.521Z,1000.98
2023-05-10T00:21:13.340Z,1000.97
2023-05-10T00:22:13.366Z,1000.97
2023-05-10T00:23:13.313Z,1001.00
2023-05-10T00:24:13.362Z,1001.00
2023-05-10T00:25:13.298Z,1000.97
2023-05-10T00:26:13.303Z,1000.99
2023-05-10T00:27:13.303Z,1000.98
2023-05-10T00:28:13.274Z,1001.01
2023-05-10T00:29:13.287Z,1000.99
2023-05-10T00:30:13.528Z,1000.97
2023-05-10T00:31:13.229Z,1000.97
2023-05-10T00:32:13.294Z,1000.99
2023-05-10T00:33:13.207Z,1000.97
2023-05-10T00:34:13.253Z,1000.95
2023-05-10T00:35:13.218Z,1000.97
2023-05-10T00:36:13.227Z,1000.96
2023-05-10T00:37:13.163Z,1000.96
2023-05-10T00:38:13.158Z,1000.99
2023-05-10T00:39:13.144Z,1000.98
2023-05-10T00:40:13.203Z,1000.99
2023-05-10T00:41:13.116Z,1000.94
2023-05-10T00:42:13.105Z,1000.98
2023-05-10T00:43:13.103Z,1000.97
2023-05-10T00:44:13.093Z,1000.98
2023-05-10T00:45:13.131Z,1001.00
2023-05-10T00:46:13.103Z,1000.99
2023-05-10T00:47:13.062Z,1000.97
2023-05-10T00:48:13.051Z,1001.04
2023-05-10T00:49:13.033Z,1000.99
2023-05-10T00:50:13.081Z,1001.00
2023-05-10T00:51:13.014Z,1001.03
2023-05-10T00:52:13.006Z,1001.01
2023-05-10T00:53:12.997Z,1000.94
2023-05-10T00:54:12.985Z,1000.96
2023-05-10T00:55:12.998Z,1000.95
2023-05-10T00:56:12.963Z,1000.95
2023-05-10T00:57:12.946Z,1000.98
2023-05-10T00:58:12.954Z,1001.01
2023-05-10T00:59:12.930Z,1000.94
2023-05-10T01:00:12.940Z,1000.94
2023-05-10T01:01:12.978Z,1000.95
2023-05-10T01:02:13.006Z,1000.96
2023-05-10T01:03:12.987Z,1000.96
2023-05-10T01:04:12.874Z,1000.94
2023-05-10T01:05:12.918Z,1000.94
2023-05-10T01:06:12.888Z,1000.94
2023-05-10T01:07:12.869Z,1000.94
2023-05-10T01:08:12.893Z,1000.94
2023-05-10T01:09:12.825Z,1000.96
2023-05-10T01:10:12.835Z,1000.94
2023-05-10T01:11:12.796Z,1000.93
2023-05-10T01:12:12.838Z,1000.99
2023-05-10T01:13:12.801Z,1000.98
2023-05-10T01:14:12.800Z,1000.99
2023-05-10T01:15:12.749Z,1001.01
2023-05-10T01:16:12.867Z,1001.03
2023-05-10T01:17:12.735Z,1001.03
2023-05-10T01:18:12.726Z,1001.10
2023-05-10T01:19:12.741Z,1001.01
2023-05-10T01:20:12.725Z,1001.07
2023-05-10T01:21:12.690Z,1001.04
2023-05-10T01:22:12.731Z,1001.04
2023-05-10T01:23:12.755Z,1001.01
2023-05-10T01:24:12.669Z,1001.03
2023-05-10T01:25:12.677Z,1001.07
2023-05-10T01:26:12.657Z,1001.03
2023-05-10T01:27:12.665Z,1001.07
2023-05-10T01:28:12.638Z,1001.12
2023-05-10T01:29:12.682Z,1001.16
2023-05-10T01:30:21.674Z,1001.16
2023-05-10T01:31:13.584Z,1001.17
2023-05-10T01:32:12.575Z,1001.15
2023-05-10T01:33:12.583Z,1001.17
2023-05-10T01:34:12.556Z,1001.17
2023-05-10T01:35:12.538Z,1001.17
2023-05-10T01:36:12.537Z,1001.25
2023-05-10T01:37:12.546Z,1001.24
2023-05-10T01:38:12.509Z,1001.23
2023-05-10T01:39:12.496Z,1001.24
2023-05-10T01:40:12.489Z,1001.26
2023-05-10T01:41:12.465Z,1001.27
2023-05-10T01:42:12.476Z,1001.31
2023-05-10T01:43:12.487Z,1001.27
2023-05-10T01:44:12.437Z,1001.31
2023-05-10T01:45:12.463Z,1001.29
2023-05-10T01:46:12.463Z,1001.34
2023-05-10T01:47:12.434Z,1001.30
2023-05-10T01:48:12.517Z,1001.37
2023-05-10T01:49:12.392Z,1001.35
2023-05-10T01:50:12.443Z,1001.37
2023-05-10T01:51:12.360Z,1001.38
2023-05-10T01:52:12.381Z,1001.30
2023-05-10T01:53:12.392Z,1001.34
2023-05-10T01:54:12.326Z,1001.33
2023-05-10T01:55:12.314Z,1001.30
2023-05-10T01:56:12.329Z,1001.34
2023-05-10T01:57:12.291Z,1001.36
2023-05-10T01:58:12.290Z,1001.39
2023-05-10T01:59:12.271Z,1001.35
2023-05-10T02:00:12.274Z,1001.36
2023-05-10T02:01:12.308Z,1001.38
2023-05-10T02:02:12.243Z,1001.36
2023-05-10T02:03:12.345Z,1001.39
2023-05-10T02:04:12.291Z,1001.37
2023-05-10T02:05:12.206Z,1001.34
2023-05-10T02:06:12.197Z,1001.36
2023-05-10T02:07:12.224Z,1001.30
2023-05-10T02:08:12.217Z,1001.35
2023-05-10T02:09:12.161Z,1001.39
2023-05-10T02:10:12.187Z,1001.41
2023-05-10T02:11:12.193Z,1001.41
2023-05-10T02:12:12.141Z,1001.37
2023-05-10T02:13:12.149Z,1001.41
2023-05-10T02:14:12.132Z,1001.42
2023-05-10T02:15:12.102Z,1001.44
2023-05-10T02:16:12.156Z,1001.44
2023-05-10T02:17:12.128Z,1001.45
2023-05-10T02:18:12.070Z,1001.45
2023-05-10T02:19:12.086Z,1001.47
2023-05-10T02:20:12.053Z,1001.46
2023-05-10T02:21:12.074Z,1001.47
2023-05-10T02:22:12.050Z,1001.49
2023-05-10T02:23:12.019Z,1001.49
2023-05-10T02:24:12.014Z,1001.52
2023-05-10T02:25:11.996Z,1001.51
2023-05-10T02:26:11.988Z,1001.56
2023-05-10T02:27:12.023Z,1001.52
2023-05-10T02:28:11.963Z,1001.55
2023-05-10T02:29:11.989Z,1001.52
2023-05-10T02:30:11.940Z,1001.53
2023-05-10T02:31:11.926Z,1001.53
2023-05-10T02:32:12.057Z,1001.56
2023-05-10T02:33:11.903Z,1001.56
2023-05-10T02:34:11.911Z,1001.50
2023-05-10T02:35:12.354Z,1001.51
2023-05-10T02:36:11.891Z,1001.51
2023-05-10T02:37:11.918Z,1001.48
2023-05-10T02:38:11.851Z,1001.48
2023-05-10T02:39:11.849Z,1001.49
2023-05-10T02:40:11.860Z,1001.52
2023-05-10T02:41:11.872Z,1001.52
2023-05-10T02:42:11.815Z,1001.57
2023-05-10T02:43:11.841Z,1001.51
2023-05-10T02:44:11.793Z,1001.55
2023-05-10T02:45:11.775Z,1001.50
2023-05-10T02:46:11.777Z,1001.49
2023-05-10T02:47:11.780Z,1001.51
2023-05-10T02:48:11.775Z,1001.55
2023-05-10T02:49:11.733Z,1001.51
2023-05-10T02:50:11.731Z,1001.51
2023-05-10T02:51:11.714Z,1001.54
2023-05-10T02:52:11.704Z,1001.55
2023-05-10T02:53:11.725Z,1001.54
2023-05-10T02:54:11.736Z,1001.55
2023-05-10T02:55:11.687Z,1001.53
2023-05-10T02:56:11.657Z,1001.57
2023-05-10T02:57:11.644Z,1001.61
2023-05-10T02:58:11.681Z,1001.56
2023-05-10T02:59:11.625Z,1001.57
2023-05-10T03:00:11.628Z,1001.56
2023-05-10T03:01:11.627Z,1001.58
2023-05-10T03:02:12.526Z,1001.60
2023-05-10T03:03:11.621Z,1001.56
2023-05-10T03:04:11.608Z,1001.59
2023-05-10T03:05:11.584Z,1001.58
2023-05-10T03:06:11.589Z,1001.58
2023-05-10T03:07:11.541Z,1001.60
2023-05-10T03:08:11.534Z,1001.56
2023-05-10T03:09:11.554Z,1001.64
2023-05-10T03:10:11.553Z,1001.56
2023-05-10T03:11:11.502Z,1001.60
2023-05-10T03:12:11.491Z,1001.60
2023-05-10T03:13:11.631Z,1001.58
2023-05-10T03:14:11.466Z,1001.54
2023-05-10T03:15:11.469Z,1001.55
2023-05-10T03:16:11.485Z,1001.58
2023-05-10T03:17:11.444Z,1001.60
2023-05-10T03:18:11.443Z,1001.64
2023-05-10T03:19:11.444Z,1001.63
2023-05-10T03:20:11.414Z,1001.63
2023-05-10T03:21:11.386Z,1001.63
2023-05-10T03:22:11.381Z,1001.68
2023-05-10T03:23:11.429Z,1001.68
2023-05-10T03:24:11.391Z,1001.68
2023-05-10T03:25:11.339Z,1001.66
2023-05-10T03:26:11.340Z,1001.70
2023-05-10T03:27:11.328Z,1001.73
2023-05-10T03:28:11.322Z,1001.68
2023-05-10T03:29:11.340Z,1001.66
2023-05-10T03:30:11.293Z,1001.68
2023-05-10T03:31:11.289Z,1001.68
2023-05-10T03:32:11.288Z,1001.69
2023-05-10T03:33:11.255Z,1001.69
2023-05-10T03:34:11.300Z,1001.71
2023-05-10T03:35:12.260Z,1001.77
2023-05-10T03:36:11.224Z,1001.69
2023-05-10T03:37:11.216Z,1001.73
2023-05-10T03:38:11.270Z,1001.74
2023-05-10T03:39:11.199Z,1001.76
2023-05-10T03:40:11.192Z,1001.75
2023-05-10T03:41:11.174Z,1001.76
2023-05-10T03:42:11.165Z,1001.77
2023-05-10T03:43:11.303Z,1001.80
2023-05-10T03:44:11.149Z,1001.81
2023-05-10T03:45:11.142Z,1001.81
2023-05-10T03:46:11.154Z,1001.84
2023-05-10T03:47:11.118Z,1001.81
2023-05-10T03:48:11.114Z,1001.82
2023-05-10T03:49:11.133Z,1001.85
2023-05-10T03:50:11.067Z,1001.85
2023-05-10T03:51:11.070Z,1001.80
2023-05-10T03:52:11.067Z,1001.80
2023-05-10T03:53:11.101Z,1001.79
2023-05-10T03:54:12.572Z,1001.84
2023-05-10T03:55:11.048Z,1001.81
2023-05-10T03:56:11.056Z,1001.87
2023-05-10T03:57:11.017Z,1001.88
2023-05-10T03:58:11.068Z,1001.89
2023-05-10T03:59:10.984Z,1001.92
2023-05-10T04:00:10.999Z,1001.88
2023-05-10T04:01:10.960Z,1001.85
2023-05-10T04:02:11.022Z,1001.88
2023-05-10T04:03:11.170Z,1001.86
2023-05-10T04:04:10.992Z,1001.89
2023-05-10T04:05:10.967Z,1001.82
2023-05-10T04:06:10.936Z,1001.88
2023-05-10T04:07:10.892Z,1001.86
2023-05-10T04:08:10.920Z,1001.88
2023-05-10T04:09:10.987Z,1001.86
2023-05-10T04:10:10.867Z,1001.88
2023-05-10T04:11:10.853Z,1001.88
2023-05-10T04:12:11.207Z,1001.90
2023-05-10T04:13:10.863Z,1001.87
2023-05-10T04:14:10.852Z,1001.88
2023-05-10T04:15:10.801Z,1001.89
2023-05-10T04:16:10.789Z,1001.85
2023-05-10T04:17:10.843Z,1001.86
2023-05-10T04:18:10.859Z,1001.87
2023-05-10T04:19:10.790Z,1001.86
2023-05-10T04:20:10.769Z,1001.89
2023-05-10T04:21:10.740Z,1001.92
2023-05-10T04:22:10.925Z,1001.91
2023-05-10T04:23:10.711Z,1001.91
2023-05-10T04:24:10.699Z,1001.90
2023-05-10T04:25:10.694Z,1001.91
2023-05-10T04:26:10.703Z,1001.88
2023-05-10T04:27:10.679Z,1001.91
2023-05-10T04:28:10.656Z,1001.89
2023-05-10T04:29:10.712Z,1001.91
2023-05-10T04:30:10.632Z,1001.90
2023-05-10T04:31:10.722Z,1001.92
2023-05-10T04:32:10.647Z,1001.95
2023-05-10T04:33:10.613Z,1001.95
2023-05-10T04:34:10.604Z,1001.94
2023-05-10T04:35:10.647Z,1001.95
2023-05-10T04:36:10.571Z,1001.97
2023-05-10T04:37:10.603Z,1001.97
2023-05-10T04:38:10.554Z,1001.92
2023-05-10T04:39:10.533Z,1001.89
2023-05-10T04:40:10.559Z,1001.91
2023-05-10T04:41:10.537Z,1001.93
2023-05-10T04:42:10.503Z,1001.93
2023-05-10T04:43:10.497Z,1001.93
2023-05-10T04:44:10.503Z,1001.97
2023-05-10T04:45:11.794Z,1002.00
2023-05-10T04:46:10.482Z,1002.02
2023-05-10T04:47:12.578Z,1002.00
2023-05-10T04:48:10.436Z,1001.99
2023-05-10T04:49:10.441Z,1002.02
2023-05-10T04:50:10.500Z,1001.99
2023-05-10T04:51:10.418Z,1002.04
2023-05-10T04:52:10.393Z,1002.07
2023-05-10T04:53:10.393Z,1002.09
2023-05-10T04:54:10.386Z,1002.07
2023-05-10T04:55:10.518Z,1002.09
2023-05-10T04:56:10.392Z,1002.08
2023-05-10T04:57:10.347Z,1002.07
2023-05-10T04:58:10.343Z,1002.12
2023-05-10T04:59:10.328Z,1002.06
2023-05-10T05:00:10.306Z,1002.14
2023-05-10T05:01:10.377Z,1002.08
2023-05-10T05:02:10.429Z,1002.11
2023-05-10T05:03:10.307Z,1002.10
2023-05-10T05:04:10.267Z,1002.10
2023-05-10T05:05:10.259Z,1002.13
2023-05-10T05:06:10.244Z,1002.10
2023-05-10T05:07:12.117Z,1002.18
2023-05-10T05:08:10.218Z,1002.20
2023-05-10T05:09:10.224Z,1002.20
2023-05-10T05:10:14.073Z,1002.15
2023-05-10T05:11:10.196Z,1002.16
2023-05-10T05:12:10.234Z,1002.15
2023-05-10T05:13:10.220Z,1002.21
2023-05-10T05:14:10.157Z,1002.25
2023-05-10T05:15:12.668Z,1002.24
2023-05-10T05:16:12.552Z,1002.21
2023-05-10T05:17:10.132Z,1002.24
2023-05-10T05:18:10.163Z,1002.28
2023-05-10T05:19:10.110Z,1002.27
2023-05-10T05:20:10.089Z,1002.26
2023-05-10T05:21:11.858Z,1002.28
2023-05-10T05:22:10.066Z,1002.24
2023-05-10T05:23:10.057Z,1002.25
2023-05-10T05:24:10.043Z,1002.27
2023-05-10T05:25:10.090Z,1002.33
2023-05-10T05:26:11.823Z,1002.30
2023-05-10T05:27:10.011Z,1002.32
2023-05-10T05:28:10.069Z,1002.35
2023-05-10T05:29:09.999Z,1002.37
2023-05-10T05:30:10.021Z,1002.38
2023-05-10T05:31:10.272Z,1002.37
2023-05-10T05:32:10.031Z,1002.41
2023-05-10T05:33:10.002Z,1002.40
2023-05-10T05:34:09.989Z,1002.37
2023-05-10T05:35:09.937Z,1002.36
2023-05-10T05:36:09.968Z,1002.31
2023-05-10T05:37:09.966Z,1002.34
2023-05-10T05:38:09.894Z,1002.37
2023-05-10T05:39:09.887Z,1002.34
2023-05-10T05:40:09.882Z,1002.36
2023-05-10T05:41:11.901Z,1002.41
2023-05-10T05:42:09.848Z,1002.42
2023-05-10T05:43:09.854Z,1002.44
2023-05-10T05:44:09.840Z,1002.41
2023-05-10T05:45:09.903Z,1002.41
2023-05-10T05:46:09.949Z,1002.44
2023-05-10T05:47:09.847Z,1002.44
2023-05-10T05:48:09.864Z,1002.42
2023-05-10T05:49:09.776Z,1002.44
2023-05-10T05:50:14.118Z,1002.45
2023-05-10T05:51:09.806Z,1002.44
2023-05-10T05:52:13.729Z,1002.52
2023-05-10T05:53:09.741Z,1002.48
2023-05-10T05:54:09.720Z,1002.49
2023-05-10T05:55:09.719Z,1002.49
2023-05-10T05:56:09.701Z,1002.56
2023-05-10T05:57:09.755Z,1002.50
2023-05-10T05:58:09.678Z,1002.51
2023-05-10T05:59:09.791Z,1002.49
2023-05-10T06:00:09.671Z,1002.55
2023-05-10T06:01:09.667Z,1002.50
2023-05-10T06:02:09.659Z,1002.53
2023-05-10T06:03:09.720Z,1002.57
2023-05-10T06:04:09.670Z,1002.60
2023-05-10T06:05:13.948Z,1002.59
2023-05-10T06:06:09.607Z,1002.60
2023-05-10T06:07:09.595Z,1002.62
2023-05-10T06:08:09.562Z,1002.64
2023-05-10T06:09:09.573Z,1002.65
2023-05-10T06:10:09.548Z,1002.67
2023-05-10T06:11:09.573Z,1002.61
2023-05-10T06:12:09.595Z,1002.63
2023-05-10T06:13:09.569Z,1002.68
2023-05-10T06:14:11.228Z,1002.65
2023-05-10T06:15:09.501Z,1002.63
2023-05-10T06:16:09.526Z,1002.65
2023-05-10T06:17:09.475Z,1002.67
2023-05-10T06:18:09.569Z,1002.66
2023-05-10T06:19:09.459Z,1002.70
2023-05-10T06:20:09.442Z,1002.72
2023-05-10T06:21:09.458Z,1002.71
2023-05-10T06:22:09.454Z,1002.74
2023-05-10T06:23:11.689Z,1002.76
2023-05-10T06:24:09.403Z,1002.78
2023-05-10T06:25:11.426Z,1002.80
2023-05-10T06:26:09.421Z,1002.81
2023-05-10T06:27:09.403Z,1002.83
2023-05-10T06:28:11.140Z,1002.85
2023-05-10T06:29:09.347Z,1002.89
2023-05-10T06:30:13.503Z,1002.86
2023-05-10T06:31:09.359Z,1002.87
2023-05-10T06:32:09.308Z,1002.92
2023-05-10T06:33:09.421Z,1002.92
2023-05-10T06:34:09.296Z,1002.95
2023-05-10T06:35:09.318Z,1002.93
2023-05-10T06:36:09.279Z,1002.93
2023-05-10T06:37:09.263Z,1002.91
2023-05-10T06:38:16.168Z,1002.91
2023-05-10T06:39:09.262Z,1002.91
2023-05-10T06:40:09.224Z,1002.92
2023-05-10T06:41:09.221Z,1002.91
2023-05-10T06:42:09.202Z,1002.94
2023-05-10T06:43:09.204Z,1002.92
2023-05-10T06:44:09.229Z,1002.96
2023-05-10T06:45:09.169Z,1002.92
2023-05-10T06:46:09.201Z,1002.95
2023-05-10T06:47:09.229Z,1002.98
2023-05-10T06:48:09.198Z,1003.00
2023-05-10T06:49:09.274Z,1003.02
2023-05-10T06:50:09.136Z,1003.04
2023-05-10T06:51:09.110Z,1002.99
2023-05-10T06:52:09.094Z,1002.98
2023-05-10T06:53:13.287Z,1002.96
2023-05-10T06:54:09.073Z,1002.96
2023-05-10T06:55:09.079Z,1002.93
2023-05-10T06:56:09.087Z,1002.96
2023-05-10T06:57:19.395Z,1002.97
2023-05-10T06:58:10.063Z,1002.98
2023-05-10T06:59:09.052Z,1002.98
2023-05-10T07:00:09.039Z,1002.98
2023-05-10T07:01:09.053Z,1003.02
2023-05-10T07:02:09.074Z,1002.97
2023-05-10T07:03:09.034Z,1003.03
2023-05-10T07:04:08.962Z,1002.99
2023-05-10T07:05:08.949Z,1003.04
2023-05-10T07:06:15.721Z,1003.04
2023-05-10T07:07:09.959Z,1003.05
2023-05-10T07:08:08.914Z,1003.06
2023-05-10T07:09:08.936Z,1003.06
2023-05-10T07:10:08.898Z,1003.01
2023-05-10T07:11:08.909Z,1003.08
2023-05-10T07:12:13.448Z,1003.07
2023-05-10T07:13:08.974Z,1003.05
2023-05-10T07:14:08.869Z,1003.08
2023-05-10T07:15:08.878Z,1003.03
2023-05-10T07:16:08.929Z,1003.08
2023-05-10T07:17:08.907Z,1003.07
2023-05-10T07:18:11.416Z,1003.10
2023-05-10T07:19:08.795Z,1003.07
2023-05-10T07:20:08.788Z,1003.11
2023-05-10T07:21:08.828Z,1003.08
2023-05-10T07:22:08.768Z,1003.13
2023-05-10T07:23:08.750Z,1003.11
2023-05-10T07:24:10.564Z,1003.07
2023-05-10T07:25:08.730Z,1003.08
2023-05-10T07:26:08.719Z,1003.11
2023-05-10T07:27:08.709Z,1003.13
2023-05-10T07:28:08.698Z,1003.10
2023-05-10T07:29:08.691Z,1003.05
2023-05-10T07:30:08.736Z,1003.15
2023-05-10T07:31:08.759Z,1003.13
2023-05-10T07:32:08.682Z,1003.10
2023-05-10T07:33:08.695Z,1003.16
2023-05-10T07:34:08.623Z,1003.14
2023-05-10T07:35:10.397Z,1003.16
2023-05-10T07:36:08.617Z,1003.17
2023-05-10T07:37:12.650Z,1003.14
2023-05-10T07:38:08.588Z,1003.13
2023-05-10T07:39:08.580Z,1003.15
2023-05-10T07:40:08.605Z,1003.13
2023-05-10T07:41:08.582Z,1003.11
2023-05-10T07:42:09.199Z,1003.08
2023-05-10T07:43:08.542Z,1003.08
2023-05-10T07:44:08.510Z,1003.09
2023-05-10T07:45:08.507Z,1003.10
2023-05-10T07:46:08.537Z,1003.12
2023-05-10T07:47:08.499Z,1003.09
2023-05-10T07:48:08.558Z,1003.09
2023-05-10T07:49:08.476Z,1003.08
2023-05-10T07:50:08.454Z,1003.12
2023-05-10T07:51:08.447Z,1003.12
2023-05-10T07:52:10.369Z,1003.12
2023-05-10T07:53:08.417Z,1003.19
2023-05-10T07:54:08.432Z,1003.16
2023-05-10T07:55:08.444Z,1003.15
2023-05-10T07:56:08.432Z,1003.11
2023-05-10T07:57:08.362Z,1003.16
2023-05-10T07:58:08.366Z,1003.14
2023-05-10T07:59:10.092Z,1003.18
2023-05-10T08:00:08.352Z,1003.18
2023-05-10T08:01:11.557Z,1003.20
2023-05-10T08:02:08.391Z,1003.19
2023-05-10T08:03:08.568Z,1003.20
2023-05-10T08:04:08.413Z,1003.21
2023-05-10T08:05:08.345Z,1003.18
2023-05-10T08:06:08.276Z,1003.19
2023-05-10T08:07:08.316Z,1003.22
2023-05-10T08:08:08.252Z,1003.24
2023-05-10T08:09:08.244Z,1003.23
2023-05-10T08:10:08.221Z,1003.27
2023-05-10T08:11:08.214Z,1003.29
2023-05-10T08:12:08.217Z,1003.25
2023-05-10T08:13:08.228Z,1003.28
2023-05-10T08:14:08.199Z,1003.29
2023-05-10T08:15:08.180Z,1003.35
2023-05-10T08:16:08.207Z,1003.31
2023-05-10T08:17:08.164Z,1003.31
2023-05-10T08:18:08.196Z,1003.32
2023-05-10T08:19:09.839Z,1003.33
2023-05-10T08:20:08.129Z,1003.35
2023-05-10T08:21:08.099Z,1003.39
2023-05-10T08:22:08.106Z,1003.36
2023-05-10T08:23:08.119Z,1003.36
2023-05-10T08:24:09.952Z,1003.40
2023-05-10T08:25:08.058Z,1003.41
2023-05-10T08:26:08.106Z,1003.40
2023-05-10T08:27:08.049Z,1003.41
2023-05-10T08:28:09.926Z,1003.43
2023-05-10T08:29:08.051Z,1003.44
2023-05-10T08:30:08.045Z,1003.46
2023-05-10T08:31:08.080Z,1003.42
2023-05-10T08:32:07.997Z,1003.44
2023-05-10T08:33:08.017Z,1003.45
2023-05-10T08:34:07.972Z,1003.44
2023-05-10T08:35:07.955Z,1003.49
2023-05-10T08:36:07.965Z,1003.51
2023-05-10T08:37:08.024Z,1003.49
2023-05-10T08:38:07.938Z,1003.49
2023-05-10T08:39:16.190Z,1003.54
2023-05-10T08:40:08.947Z,1003.55
2023-05-10T08:41:07.893Z,1003.58
2023-05-10T08:42:07.922Z,1003.56
2023-05-10T08:43:07.883Z,1003.60
2023-05-10T08:44:07.912Z,1003.57
2023-05-10T08:45:07.899Z,1003.59
2023-05-10T08:46:07.915Z,1003.62
2023-05-10T08:47:07.919Z,1003.66
2023-05-10T08:48:07.933Z,1003.64
2023-05-10T08:49:07.806Z,1003.67
2023-05-10T08:50:07.804Z,1003.67
2023-05-10T08:51:07.789Z,1003.68
2023-05-10T08:52:07.772Z,1003.67
2023-05-10T08:53:10.159Z,1003.72
2023-05-10T08:54:07.759Z,1003.76
2023-05-10T08:55:07.762Z,1003.70
2023-05-10T08:56:07.782Z,1003.69
2023-05-10T08:57:07.736Z,1003.64
2023-05-10T08:58:07.750Z,1003.71
2023-05-10T08:59:07.744Z,1003.70
2023-05-10T09:00:07.695Z,1003.72
2023-05-10T09:01:07.702Z,1003.78
2023-05-10T09:02:07.678Z,1003.75
2023-05-10T09:03:07.692Z,1003.75
2023-05-10T09:04:07.806Z,1003.80
2023-05-10T09:05:07.698Z,1003.79
2023-05-10T09:06:07.636Z,1003.75
2023-05-10T09:07:07.638Z,1003.78
2023-05-10T09:08:07.674Z,1003.78
2023-05-10T09:09:07.640Z,1003.73
2023-05-10T09:10:07.580Z,1003.79
2023-05-10T09:11:07.572Z,1003.76
2023-05-10T09:12:07.564Z,1003.79
2023-05-10T09:13:07.554Z,1003.81
2023-05-10T09:14:07.603Z,1003.78
2023-05-10T09:15:07.538Z,1003.83
2023-05-10T09:16:20.556Z,1003.80
2023-05-10T09:17:08.551Z,1003.82
2023-05-10T09:18:07.536Z,1003.83
2023-05-10T09:19:07.582Z,1003.83
2023-05-10T09:20:08.161Z,1003.92
2023-05-10T09:21:07.493Z,1003.91
2023-05-10T09:22:07.474Z,1003.89
2023-05-10T09:23:07.445Z,1003.89
2023-05-10T09:24:09.018Z,1003.81
2023-05-10T09:25:07.422Z,1003.89
2023-05-10T09:26:07.454Z,1003.88
2023-05-10T09:27:07.428Z,1003.88
2023-05-10T09:28:07.402Z,1003.89
2023-05-10T09:29:07.381Z,1003.85
2023-05-10T09:30:12.355Z,1003.91
2023-05-10T09:31:07.366Z,1003.97
2023-05-10T09:32:09.655Z,1003.92
2023-05-10T09:33:07.387Z,1003.88
2023-05-10T09:34:07.333Z,1003.96
2023-05-10T09:35:07.323Z,1003.91
2023-05-10T09:36:08.967Z,1003.94
2023-05-10T09:37:07.288Z,1003.93
2023-05-10T09:38:07.282Z,1003.91
2023-05-10T09:39:07.268Z,1003.92
2023-05-10T09:40:14.194Z,1003.93
2023-05-10T09:41:07.250Z,1003.93
2023-05-10T09:42:11.048Z,1003.88
2023-05-10T09:43:08.687Z,1003.92
2023-05-10T09:44:07.213Z,1003.91
2023-05-10T09:45:07.213Z,1003.88
2023-05-10T09:46:07.280Z,1003.87
2023-05-10T09:47:07.186Z,1003.88
2023-05-10T09:48:07.393Z,1003.87
2023-05-10T09:49:07.155Z,1003.92
2023-05-10T09:50:07.154Z,1003.93
2023-05-10T09:51:07.168Z,1003.93
2023-05-10T09:52:07.189Z,1003.95
2023-05-10T09:53:07.113Z,1003.96
2023-05-10T09:54:07.110Z,1003.95
2023-05-10T09:55:07.090Z,1003.96
2023-05-10T09:56:07.118Z,1003.89
2023-05-10T09:57:07.076Z,1003.97
2023-05-10T09:58:07.078Z,1004.00
2023-05-10T09:59:07.090Z,1003.98
2023-05-10T10:00:07.038Z,1004.05
2023-05-10T10:01:07.047Z,1003.97
2023-05-10T10:02:07.052Z,1004.02
2023-05-10T10:03:07.092Z,1004.02
2023-05-10T10:04:07.083Z,1004.02
2023-05-10T10:05:07.039Z,1004.06
2023-05-10T10:06:15.860Z,1004.06
2023-05-10T10:07:07.970Z,1004.08
2023-05-10T10:08:06.961Z,1004.07
2023-05-10T10:09:06.984Z,1004.07
2023-05-10T10:10:06.952Z,1004.07
2023-05-10T10:11:06.921Z,1004.14
2023-05-10T10:12:06.950Z,1004.17
2023-05-10T10:13:06.914Z,1004.15
2023-05-10T10:14:06.935Z,1004.16
2023-05-10T10:15:06.876Z,1004.17
2023-05-10T10:16:06.927Z,1004.14
2023-05-10T10:17:08.955Z,1004.08
2023-05-10T10:18:06.885Z,1004.08
2023-05-10T10:19:06.933Z,1004.09
2023-05-10T10:20:06.820Z,1004.10
2023-05-10T10:21:06.811Z,1004.10
2023-05-10T10:22:06.993Z,1004.08
2023-05-10T10:23:06.787Z,1004.12
2023-05-10T10:24:06.782Z,1004.15
2023-05-10T10:25:08.610Z,1004.11
2023-05-10T10:26:06.804Z,1004.17
2023-05-10T10:27:06.743Z,1004.14
2023-05-10T10:28:06.752Z,1004.15
2023-05-10T10:29:06.776Z,1004.10
2023-05-10T10:30:06.721Z,1004.14
2023-05-10T10:31:06.748Z,1004.21
2023-05-10T10:32:08.828Z,1004.18
2023-05-10T10:33:16.513Z,1004.18
2023-05-10T10:34:07.682Z,1004.17
2023-05-10T10:35:06.683Z,1004.19
2023-05-10T10:36:06.717Z,1004.19
2023-05-10T10:37:06.644Z,1004.14
2023-05-10T10:38:06.687Z,1004.17
2023-05-10T10:39:06.620Z,1004.14
2023-05-10T10:40:06.641Z,1004.20
2023-05-10T10:41:06.610Z,1004.18
2023-05-10T10:42:06.607Z,1004.18
2023-05-10T10:43:06.634Z,1004.22
2023-05-10T10:44:06.565Z,1004.19
2023-05-10T10:45:06.721Z,1004.19
2023-05-10T10:46:06.548Z,1004.20
2023-05-10T10:47:06.619Z,1004.26
2023-05-10T10:48:06.562Z,1004.23
2023-05-10T10:49:08.140Z,1004.24
2023-05-10T10:50:11.407Z,1004.23
2023-05-10T10:51:06.482Z,1004.25
2023-05-10T10:52:06.679Z,1004.23
2023-05-10T10:53:06.524Z,1004.23
2023-05-10T10:54:06.463Z,1004.25
2023-05-10T10:55:06.442Z,1004.24
2023-05-10T10:56:06.434Z,1004.25
2023-05-10T10:57:06.460Z,1004.33
2023-05-10T10:58:08.318Z,1004.29
2023-05-10T10:59:06.451Z,1004.27
2023-05-10T11:00:06.446Z,1004.33
2023-05-10T11:01:06.414Z,1004.29
2023-05-10T11:02:06.371Z,1004.34
2023-05-10T11:03:06.395Z,1004.29
2023-05-10T11:04:06.401Z,1004.36
2023-05-10T11:05:06.373Z,1004.34
2023-05-10T11:06:06.354Z,1004.31
2023-05-10T11:07:06.350Z,1004.31
2023-05-10T11:08:06.306Z,1004.33
2023-05-10T11:09:06.291Z,1004.33
2023-05-10T11:10:06.324Z,1004.36
2023-05-10T11:11:06.261Z,1004.34
2023-05-10T11:12:09.495Z,1004.42
2023-05-10T11:13:06.248Z,1004.42
2023-05-10T11:14:06.275Z,1004.40
2023-05-10T11:15:07.955Z,1004.45
2023-05-10T11:16:06.215Z,1004.44
2023-05-10T11:17:06.303Z,1004.51
2023-05-10T11:18:06.299Z,1004.47
2023-05-10T11:19:06.263Z,1004.53
2023-05-10T11:20:07.887Z,1004.50
2023-05-10T11:21:06.250Z,1004.48
2023-05-10T11:22:06.195Z,1004.51
2023-05-10T11:23:06.152Z,1004.47
2023-05-10T11:24:06.141Z,1004.51
2023-05-10T11:25:13.841Z,1004.58
2023-05-10T11:26:06.101Z,1004.58
2023-05-10T11:27:06.143Z,1004.57
2023-05-10T11:28:06.100Z,1004.56
2023-05-10T11:29:06.174Z,1004.51
2023-05-10T11:30:06.066Z,1004.60
2023-05-10T11:31:06.142Z,1004.50
2023-05-10T11:32:06.050Z,1004.57
2023-05-10T11:33:06.172Z,1004.64
2023-05-10T11:34:07.979Z,1004.57
2023-05-10T11:35:06.011Z,1004.60
2023-05-10T11:36:06.022Z,1004.60
2023-05-10T11:37:06.006Z,1004.60
2023-05-10T11:38:06.012Z,1004.60
2023-05-10T11:39:06.059Z,1004.58
2023-05-10T11:40:05.954Z,1004.67
2023-05-10T11:41:05.942Z,1004.58
2023-05-10T11:42:05.982Z,1004.65
2023-05-10T11:43:05.939Z,1004.65
2023-05-10T11:44:05.928Z,1004.59
2023-05-10T11:45:05.909Z,1004.63
2023-05-10T11:46:05.955Z,1004.58
2023-05-10T11:47:05.889Z,1004.60
2023-05-10T11:48:05.916Z,1004.64
2023-05-10T11:49:05.901Z,1004.59
2023-05-10T11:50:05.853Z,1004.67
2023-05-10T11:51:05.856Z,1004.69
2023-05-10T11:52:08.094Z,1004.68
2023-05-10T11:53:05.814Z,1004.68
2023-05-10T11:54:05.806Z,1004.68
2023-05-10T11:55:05.838Z,1004.71
2023-05-10T11:56:05.800Z,1004.72
2023-05-10T11:57:05.775Z,1004.72
2023-05-10T11:58:05.761Z,1004.70
2023-05-10T11:59:05.775Z,1004.68
2023-05-10T12:00:05.736Z,1004.75
2023-05-10T12:01:05.764Z,1004.68
2023-05-10T12:02:05.732Z,1004.71
2023-05-10T12:03:05.832Z,1004.73
2023-05-10T12:04:05.837Z,1004.75
2023-05-10T12:05:07.730Z,1004.78